Bowling Green Warren County Regional Airport
KBWG : now visible

Airfield :











YOU CAN JOIN US ON...

 
LOGIN :

Register | Disclaimer

   EN    FR    IT 

 









Legend :    VFR   Marginal VFR   IFR   Intensive IFR   Very Intensive IFR
Visi :
Ceiling :
>= 8 km
>= 3000ft
5 to 8 km
1000 to 3000 ft
1500m to 5 km
500 to 1000 ft
800 to 1500m
200 to 500 ft
< 800m
< 200 ft
Symbols :   Thunderstorms  Fog  Heavy snow  Heavy precipitations  Wind > 20 kt







- Airport Elevation : 547 ft


KBWG - Bowling Green Warren County Regional

CURRENT METAR :
  • 181653Z AUTO 18018G23KT 10SM OVC041 22/14 A2980 RMK AO2 PK WND 20027/1556 SLP086 T02220139

EXPIRED METARs :
  • 181553Z AUTO 20016G24KT 10SM BKN035 BKN042 21/13 A2984 RMK AO2 PK WND 19026/1534 SLP098 T02110133
  • 181453Z AUTO 20013G20KT 10SM OVC039 21/14 A2984 RMK AO2 SLP099 T02110139 50012

TAF KBWG
Valid from the 18 at 14:00 until the 19 at 12:00 UTC


181407Z 1814/1912 20013G22KT P6SM BKN040 OVC100
TEMPO 1815/1817 6SM -SHRA BKN025
FM182100 19016G26KT P6SM VCSH SCT040 OVC100
FM190100 18014G24KT 3SM SHRA VCTS SCT025CB OVC040
TEMPO 1901/1904 2SM TSRA BKN025CB
FM190500 23013G18KT 4SM -SHRA BR OVC015
KZME FIR / North America



MET'MAP, your aeronautical weather chart ! - Copyright ORBIFLY December 2007 - Disclaimer

ORBIFLY MET'MAP TEAM :

Programming & Development : Alexandra Zaïnal
Concept & Development : Baudouin d'Aumeries
Co-Development & Prog : Marc-Olivier Méhu
Technical & hardware support : Manuel Goepfert

Contact : metmap@orbifly.com




SOURCES & CREDITS :

   NOAA       Earth
Advisory